createdAt,value
2022-09-21T00:05:37.258Z,99941.31
2022-09-21T00:11:39.025Z,99936.44
2022-09-21T00:17:40.753Z,99905.69
2022-09-21T00:23:43.305Z,99931.50
2022-09-21T00:29:45.000Z,99894.88
2022-09-21T00:35:47.276Z,99933.88
2022-09-21T00:41:53.722Z,99917.13
2022-09-21T00:47:55.444Z,99895.84
2022-09-21T00:54:13.095Z,99920.72
2022-09-21T01:00:14.988Z,99915.47
2022-09-21T01:06:19.640Z,99886.31
2022-09-21T01:12:49.415Z,99906.75
2022-09-21T01:19:06.208Z,99900.69
2022-09-21T01:25:14.187Z,99918.50
2022-09-21T01:31:24.540Z,99903.81
2022-09-21T01:37:39.335Z,99905.84
2022-09-21T01:43:46.216Z,99891.50
2022-09-21T01:49:55.232Z,99881.56
2022-09-21T01:56:22.415Z,99902.66
2022-09-21T02:02:45.038Z,99907.75
2022-09-21T02:08:47.226Z,99879.19
2022-09-21T02:14:55.745Z,99874.31
2022-09-21T02:21:00.312Z,99906.06
2022-09-21T02:27:11.042Z,99913.66
2022-09-21T02:33:29.474Z,99914.88
2022-09-21T02:39:35.554Z,99916.72
2022-09-21T02:45:45.322Z,99908.84
2022-09-21T02:51:52.654Z,99917.13
2022-09-21T02:57:56.475Z,99870.72
2022-09-21T03:03:58.229Z,99816.75
2022-09-21T03:10:00.042Z,99857.75
2022-09-21T03:16:03.875Z,99929.28
2022-09-21T03:22:05.691Z,99869.91
2022-09-21T03:28:07.391Z,99898.25
2022-09-21T03:34:09.178Z,99920.53
2022-09-21T03:40:12.793Z,99945.72
2022-09-21T03:46:14.675Z,99928.66
2022-09-21T03:52:16.455Z,99923.25
2022-09-21T03:58:18.520Z,99939.31
2022-09-21T04:04:20.509Z,99956.03
2022-09-21T04:10:32.896Z,99885.63
2022-09-21T04:16:34.733Z,99921.56
2022-09-21T04:22:42.575Z,99958.34
2022-09-21T04:28:45.319Z,99956.97
2022-09-21T04:34:47.630Z,99883.00
2022-09-21T04:40:57.288Z,99877.78
2022-09-21T04:46:59.411Z,99972.75
2022-09-21T04:53:01.087Z,99927.88
2022-09-21T04:59:03.097Z,99947.47
2022-09-21T05:05:05.372Z,99971.19
2022-09-21T05:11:08.783Z,99957.81
2022-09-21T05:17:11.590Z,99914.63
2022-09-21T05:23:16.739Z,99966.22
2022-09-21T05:29:19.018Z,99948.13
2022-09-21T05:35:42.494Z,99953.53
2022-09-21T05:41:44.624Z,99918.34
2022-09-21T05:47:53.930Z,99966.22
2022-09-21T05:54:31.099Z,99983.91
2022-09-21T06:01:02.015Z,99993.19
2022-09-21T06:07:03.773Z,99947.81
2022-09-21T06:13:05.638Z,100003.78
2022-09-21T06:19:10.907Z,99988.72
2022-09-21T06:25:12.696Z,99987.47
2022-09-21T06:31:14.433Z,99981.88
2022-09-21T06:37:18.374Z,99957.34
2022-09-21T06:43:20.452Z,100017.69
2022-09-21T06:49:22.291Z,100021.06
2022-09-21T06:55:24.028Z,100024.59
2022-09-21T07:01:25.884Z,100007.75
2022-09-21T07:07:32.234Z,100032.31
2022-09-21T07:13:36.356Z,99902.84
2022-09-21T07:19:38.052Z,100012.78
2022-09-21T07:25:39.996Z,100035.63
2022-09-21T07:31:45.565Z,100036.50
2022-09-21T07:37:47.439Z,99998.97
2022-09-21T07:43:49.253Z,100016.31
2022-09-21T07:49:52.096Z,100018.09
2022-09-21T07:56:04.222Z,99987.66
2022-09-21T08:02:06.102Z,99991.34
2022-09-21T08:08:09.138Z,100061.47
2022-09-21T08:14:22.452Z,100064.25
2022-09-21T08:20:30.739Z,100022.91
2022-09-21T08:32:55.617Z,100049.97
2022-09-21T08:39:02.912Z,100036.28
2022-09-21T08:45:11.861Z,100002.63
2022-09-21T08:51:23.100Z,100010.53
2022-09-21T08:57:30.640Z,100037.06
2022-09-21T09:03:56.931Z,100033.13
2022-09-21T09:10:27.962Z,100027.69
2022-09-21T09:16:51.127Z,100031.31
2022-09-21T09:23:19.903Z,100039.03
2022-09-21T09:29:34.075Z,100040.19
2022-09-21T09:55:44.901Z,99915.28
2022-09-21T10:01:47.603Z,100002.75
2022-09-21T10:07:50.380Z,99962.75
2022-09-21T10:14:10.250Z,99943.03
2022-09-21T10:20:18.570Z,99993.13
2022-09-21T10:26:31.995Z,100008.94
2022-09-21T10:32:54.844Z,99931.63
2022-09-21T10:38:57.872Z,99919.63
2022-09-21T10:45:18.126Z,99998.31
2022-09-21T10:51:29.561Z,99963.69
2022-09-21T10:57:33.579Z,99989.56
2022-09-21T11:04:11.120Z,99993.53
2022-09-21T11:10:21.561Z,99993.66
2022-09-21T11:16:43.642Z,99958.56
2022-09-21T11:22:57.401Z,99972.44
2022-09-21T11:35:36.116Z,99959.75
2022-09-21T11:42:31.748Z,99948.50
2022-09-21T11:48:57.880Z,99951.88
2022-09-21T11:55:33.697Z,99960.25
2022-09-21T12:02:11.521Z,99955.88
2022-09-21T12:08:54.917Z,99958.91
2022-09-21T12:22:25.779Z,99965.84
2022-09-21T12:28:41.901Z,99965.88
2022-09-21T12:35:07.310Z,99972.19
2022-09-21T12:41:30.649Z,99964.63
2022-09-21T12:47:59.644Z,99900.88
2022-09-21T12:54:09.158Z,99938.19
2022-09-21T13:00:18.056Z,99952.69
2022-09-21T13:06:58.276Z,99962.78
2022-09-21T13:13:03.268Z,99959.81
2022-09-21T13:19:14.055Z,99958.75
2022-09-21T13:25:15.816Z,99954.81
2022-09-21T13:31:39.417Z,99947.88
2022-09-21T13:45:02.392Z,99955.88
2022-09-21T13:51:10.459Z,99926.22
2022-09-21T13:57:27.514Z,99969.00
2022-09-21T14:03:38.844Z,99948.91
2022-09-21T14:10:20.609Z,99914.44
2022-09-21T14:16:34.532Z,99966.31
2022-09-21T14:22:40.326Z,99929.00
2022-09-21T14:28:47.505Z,99960.69
2022-09-21T14:34:53.733Z,99964.06
2022-09-21T14:41:07.479Z,99932.97
2022-09-21T14:47:25.608Z,99968.16
2022-09-21T14:53:57.717Z,99986.31
2022-09-21T15:00:26.586Z,99994.16
2022-09-21T15:06:55.321Z,100008.59
2022-09-21T15:13:06.467Z,99984.44
2022-09-21T15:19:21.857Z,99992.22
2022-09-21T15:25:26.032Z,100018.19
2022-09-21T15:31:36.424Z,100004.78
2022-09-21T15:37:39.722Z,100032.97
2022-09-21T15:43:41.521Z,100022.34
2022-09-21T15:49:44.097Z,100039.44
2022-09-21T15:55:49.969Z,100013.28
2022-09-21T16:01:59.126Z,100037.06
2022-09-21T16:08:17.495Z,100035.50
2022-09-21T16:14:38.850Z,100036.56
2022-09-21T16:20:42.711Z,100047.72
2022-09-21T16:26:58.447Z,100060.94
2022-09-21T16:33:00.169Z,100066.34
2022-09-21T16:39:06.547Z,100069.25
2022-09-21T16:45:26.675Z,100070.84
2022-09-21T16:51:28.740Z,100061.47
2022-09-21T16:57:30.585Z,100059.25
2022-09-21T17:03:34.925Z,100073.06
2022-09-21T17:09:47.892Z,100097.44
2022-09-21T17:15:49.968Z,100110.16
2022-09-21T17:21:52.018Z,100018.88
2022-09-21T17:27:53.884Z,100102.03
2022-09-21T17:33:57.249Z,100102.94
2022-09-21T17:39:59.635Z,100084.53
2022-09-21T17:46:08.559Z,100113.81
2022-09-21T17:52:34.590Z,100110.81
2022-09-21T17:58:49.044Z,100118.16
2022-09-21T18:04:53.988Z,100071.50
2022-09-21T18:11:16.853Z,100118.81
2022-09-21T18:17:51.304Z,100100.47
2022-09-21T18:24:04.599Z,100129.47
2022-09-21T18:30:08.071Z,100122.34
2022-09-21T18:36:22.020Z,100092.63
2022-09-21T18:42:42.664Z,100114.94
2022-09-21T18:49:06.430Z,100124.63
2022-09-21T18:55:36.419Z,100131.22
2022-09-21T19:01:38.898Z,100129.53
2022-09-21T19:07:46.826Z,100126.28
2022-09-21T19:13:57.493Z,100121.22
2022-09-21T19:20:35.405Z,100121.22
2022-09-21T19:27:05.100Z,100126.66
2022-09-21T19:33:48.352Z,100119.72
2022-09-21T19:39:44.770Z,100127.84
2022-09-21T19:46:07.448Z,100118.69
2022-09-21T19:52:14.888Z,100122.03
2022-09-21T19:58:35.609Z,100135.94
2022-09-21T20:05:08.208Z,100121.06
2022-09-21T20:11:28.559Z,100064.81
2022-09-21T20:17:57.400Z,100109.25
2022-09-21T20:24:02.096Z,100113.16
2022-09-21T20:30:13.033Z,100109.25
2022-09-21T20:36:15.353Z,100123.31
2022-09-21T20:42:24.021Z,100115.88
2022-09-21T20:48:25.786Z,100101.41
2022-09-21T20:54:27.481Z,100078.72
2022-09-21T21:00:29.316Z,100110.00
2022-09-21T21:06:34.743Z,100110.69
2022-09-21T21:12:36.569Z,100069.44
2022-09-21T21:18:41.901Z,100117.28
2022-09-21T21:24:44.292Z,100120.03
2022-09-21T21:30:52.618Z,100117.81
2022-09-21T21:36:54.401Z,100078.25
2022-09-21T21:42:56.473Z,100083.31
2022-09-21T21:48:58.197Z,100109.00
2022-09-21T21:54:59.901Z,100078.41
2022-09-21T22:01:12.328Z,100083.31
2022-09-21T22:07:14.073Z,100078.09
2022-09-21T22:13:16.134Z,100076.69
2022-09-21T22:19:18.106Z,100085.53
2022-09-21T22:25:19.989Z,100092.09
2022-09-21T22:31:26.640Z,100098.03
2022-09-21T22:37:28.623Z,100052.53
2022-09-21T22:43:30.452Z,100088.91
2022-09-21T22:49:32.164Z,100053.91
2022-09-21T22:55:33.933Z,100048.66
2022-09-21T23:01:40.328Z,100088.38
2022-09-21T23:07:42.022Z,100059.44
2022-09-21T23:13:43.938Z,100091.09
2022-09-21T23:19:45.944Z,100093.78
2022-09-21T23:25:47.622Z,100064.72
2022-09-21T23:31:49.522Z,100029.72
2022-09-21T23:37:51.261Z,100081.25
2022-09-21T23:43:53.639Z,100002.03
2022-09-21T23:49:55.420Z,100078.22
2022-09-21T23:55:57.886Z,100012.34
